Time;durP1;ratioP1;P1;durP2;ratioP2;P2;SDS_P1;SDS_P2;PMS_P1;PMS_P2;Temp;Humidity;BMP_temperature;BMP_pressure;BME280_temperature;BME280_humidity;BME280_pressure;Samples;Min_cycle;Max_cycle;Signal;HPM_P1;HPM_P2
2023/10/27 00:39:56;;;;;;;13.15;2.33;;;;;;;;;;6193992;23;19939;-81
2023/10/27 00:42:27;;;;;;;9.27;2.65;;;;;;;;;;6158551;23;20009;-82
2023/10/27 00:44:57;;;;;;;10.00;2.60;;;;;;;;;;6184630;23;20020;-81
2023/10/27 00:47:29;;;;;;;7.55;2.75;;;;;;;;;;6184971;23;20005;-81
2023/10/27 00:50:00;;;;;;;7.70;2.30;;;;;;;;;;6195073;23;20009;-82
2023/10/27 00:52:32;;;;;;;8.40;2.50;;;;;;;;;;6194636;23;20009;-83
2023/10/27 00:55:06;;;;;;;10.07;2.40;;;;;;;;;;6184994;23;20009;-81
2023/10/27 00:57:36;;;;;;;11.38;2.35;;;;;;;;;;6194764;23;20012;-81
2023/10/27 01:00:09;;;;;;;10.45;2.40;;;;;;;;;;6157651;23;20013;-81
2023/10/27 01:02:40;;;;;;;15.93;2.67;;;;;;;;;;6168742;23;20274;-82
2023/10/27 01:05:10;;;;;;;11.00;2.30;;;;;;;;;;6182441;23;20017;-82
2023/10/27 01:07:41;;;;;;;7.88;2.40;;;;;;;;;;6159171;23;20043;-80
2023/10/27 01:10:11;;;;;;;4.95;2.05;;;;;;;;;;6184888;23;20013;-84
2023/10/27 01:12:45;;;;;;;7.50;2.38;;;;;;;;;;6157939;23;20021;-82
2023/10/27 01:15:16;;;;;;;11.05;2.50;;;;;;;;;;6157985;23;20463;-81
2023/10/27 01:17:47;;;;;;;9.77;2.50;;;;;;;;;;6158114;23;20027;-81
2023/10/27 01:20:18;;;;;;;7.03;2.20;;;;;;;;;;6157854;23;20013;-81
2023/10/27 01:22:49;;;;;;;9.38;2.30;;;;;;;;;;6183906;23;20016;-82
2023/10/27 01:25:19;;;;;;;8.85;2.03;;;;;;;;;;6133215;23;20020;-81
2023/10/27 01:27:50;;;;;;;7.03;2.20;;;;;;;;;;6194351;23;20012;-82
2023/10/27 01:30:20;;;;;;;10.95;2.15;;;;;;;;;;6172837;23;20013;-82
2023/10/27 01:32:51;;;;;;;9.02;2.45;;;;;;;;;;6194381;23;20025;-83
2023/10/27 01:35:22;;;;;;;6.22;2.28;;;;;;;;;;6194574;23;20005;-83
2023/10/27 01:37:53;;;;;;;11.43;2.70;;;;;;;;;;6158480;23;20040;-82
2023/10/27 01:40:23;;;;;;;7.55;2.55;;;;;;;;;;6180734;23;20017;-82
2023/10/27 01:42:53;;;;;;;7.30;2.33;;;;;;;;;;6157703;23;20040;-82
2023/10/27 01:45:24;;;;;;;6.68;2.17;;;;;;;;;;6183206;23;20013;-82
2023/10/27 01:47:54;;;;;;;6.88;2.38;;;;;;;;;;6183229;23;20017;-81
2023/10/27 01:50:25;;;;;;;6.50;2.10;;;;;;;;;;6132311;23;20019;-81
2023/10/27 01:52:55;;;;;;;11.65;2.60;;;;;;;;;;6180957;23;20340;-81
2023/10/27 01:55:25;;;;;;;7.13;2.28;;;;;;;;;;6156854;23;20017;-82
2023/10/27 01:57:55;;;;;;;6.60;2.35;;;;;;;;;;6183102;23;20020;-81
2023/10/27 02:00:25;;;;;;;7.25;2.60;;;;;;;;;;6132273;23;20021;-80
2023/10/27 02:02:55;;;;;;;6.93;2.47;;;;;;;;;;6182931;23;20013;-80
2023/10/27 02:05:26;;;;;;;8.02;2.80;;;;;;;;;;6155998;23;20013;-81
2023/10/27 02:08:47;;;;;;;7.78;2.22;;;;;;;;;;6192458;23;20016;-79
2023/10/27 08:39:55;;;;;;;9.40;3.34;;;;;;;;;;6145318;22;2972055;-82
2023/10/27 08:42:34;;;;;;;4.80;2.60;;;;;;;;;;6194302;23;20005;-84
2023/10/27 08:45:05;;;;;;;7.82;3.13;;;;;;;;;;6196900;23;20004;-83
2023/10/27 08:47:36;;;;;;;9.20;2.70;;;;;;;;;;6225297;23;20005;-82
2023/10/27 08:50:07;;;;;;;11.30;2.55;;;;;;;;;;6225994;23;20431;-83
2023/10/27 08:52:39;;;;;;;10.90;2.70;;;;;;;;;;6164435;23;20016;-83
2023/10/27 08:55:11;;;;;;;7.15;2.53;;;;;;;;;;6225441;23;20008;-83
2023/10/27 08:57:41;;;;;;;12.88;2.85;;;;;;;;;;6225282;23;20009;-83
2023/10/27 09:00:14;;;;;;;10.30;3.30;;;;;;;;;;6226021;23;20428;-84
2023/10/27 09:02:44;;;;;;;8.27;2.55;;;;;;;;;;6199851;23;20005;-83
2023/10/27 09:05:15;;;;;;;6.15;2.38;;;;;;;;;;6216050;23;20331;-83
2023/10/27 09:07:46;;;;;;;6.38;2.63;;;;;;;;;;6226342;23;20012;-83
2023/10/27 09:10:19;;;;;;;6.18;2.63;;;;;;;;;;6225180;23;20017;-82
2023/10/27 09:12:57;;;;;;;9.20;2.75;;;;;;;;;;6199783;23;20031;-83
2023/10/27 09:15:41;;;;;;;10.32;2.75;;;;;;;;;;6188856;23;20016;-82
2023/10/27 09:18:13;;;;;;;6.20;2.63;;;;;;;;;;6225831;23;20020;-82
2023/10/27 09:21:01;;;;;;;7.53;2.53;;;;;;;;;;6199169;23;20327;-83
2023/10/27 09:23:44;;;;;;;5.75;2.33;;;;;;;;;;6187958;23;20013;-82
2023/10/27 09:26:16;;;;;;;6.70;2.70;;;;;;;;;;6199426;23;20449;-82
2023/10/27 09:29:23;;;;;;;8.63;2.92;;;;;;;;;;6200249;23;20008;-83
2023/10/27 09:37:24;;;;;;;8.65;3.03;;;;;;;;;;6214687;23;20035;-82
2023/10/27 09:39:55;;;;;;;6.85;2.55;;;;;;;;;;6215411;23;20012;-84
2023/10/27 09:42:25;;;;;;;7.18;2.35;;;;;;;;;;6215622;23;20312;-83
2023/10/27 09:45:13;;;;;;;9.13;2.63;;;;;;;;;;6214955;23;20017;-83
2023/10/27 09:48:27;;;;;;;10.07;2.92;;;;;;;;;;6212466;23;20009;-83
2023/10/27 09:51:26;;;;;;;9.50;3.13;;;;;;;;;;6224011;23;20015;-83
2023/10/27 09:53:57;;;;;;;9.00;2.88;;;;;;;;;;6212249;23;20008;-84
2023/10/27 09:56:29;;;;;;;9.75;3.58;;;;;;;;;;6163610;23;20023;-84
2023/10/27 09:59:00;;;;;;;8.98;2.90;;;;;;;;;;6224281;23;20005;-84
2023/10/27 10:01:32;;;;;;;;;;;;;;;;;;6187612;23;20012;-83
2023/10/27 10:04:04;;;;;;;9.70;3.85;;;;;;;;;;6187156;23;19912;-85
2023/10/27 10:06:35;;;;;;;12.35;5.05;;;;;;;;;;6225384;23;20005;-84
2023/10/27 10:09:43;;;;;;;10.32;4.40;;;;;;;;;;6206424;23;20025;-84
2023/10/27 10:12:16;;;;;;;11.45;3.97;;;;;;;;;;6222601;23;20427;-84
2023/10/27 10:14:49;;;;;;;19.98;4.03;;;;;;;;;;6213150;23;20008;-85
2023/10/27 10:17:39;;;;;;;8.95;3.88;;;;;;;;;;6224062;23;20015;-84
2023/10/27 10:20:09;;;;;;;12.07;3.85;;;;;;;;;;6161693;23;20016;-84
2023/10/27 10:22:40;;;;;;;10.35;3.75;;;;;;;;;;6183474;23;20017;-87
2023/10/27 10:25:21;;;;;;;10.57;3.28;;;;;;;;;;6185623;23;20029;-87
2023/10/27 10:28:10;;;;;;;10.95;3.60;;;;;;;;;;6186547;23;20012;-86
2023/10/27 10:30:44;;;;;;;14.15;3.95;;;;;;;;;;6195868;23;20328;-85
2023/10/27 10:33:15;;;;;;;12.85;4.03;;;;;;;;;;6163402;23;20012;-85
2023/10/27 10:35:47;;;;;;;10.20;3.90;;;;;;;;;;6186159;23;20013;-85
2023/10/27 10:38:24;;;;;;;11.55;3.42;;;;;;;;;;6187082;23;20013;-86
2023/10/27 10:41:08;;;;;;;9.63;3.78;;;;;;;;;;6237658;22;20028;-87
2023/10/27 10:44:51;;;;;;;;;;;;;;;;;;;;;
2023/10/27 10:48:03;;;;;;;11.25;3.95;;;;;;;;;;6231480;23;20312;-86
2023/10/27 10:54:42;;;;;;;7.72;3.10;;;;;;;;;;6094965;23;20034;-84
2023/10/27 10:58:03;;;;;;;13.98;3.50;;;;;;;;;;6107869;23;20014;-85
2023/10/27 11:00:44;;;;;;;7.10;3.30;;;;;;;;;;6065216;23;20015;-81
2023/10/27 11:03:17;;;;;;;7.55;3.28;;;;;;;;;;6065408;23;20435;-83
2023/10/27 11:05:50;;;;;;;11.43;3.97;;;;;;;;;;6064508;23;20608;-81
2023/10/27 11:08:25;;;;;;;11.32;3.95;;;;;;;;;;6064627;23;20452;-81
2023/10/27 11:11:04;;;;;;;10.27;3.30;;;;;;;;;;6071749;23;20019;-82
2023/10/27 11:13:52;;;;;;;8.48;3.35;;;;;;;;;;6067463;23;20026;-83
2023/10/27 11:16:26;;;;;;;11.88;3.70;;;;;;;;;;6065411;23;20026;-81
2023/10/27 11:19:07;;;;;;;8.07;3.85;;;;;;;;;;6067508;23;20011;-83
2023/10/27 11:22:27;;;;;;;12.20;3.55;;;;;;;;;;6076110;23;20014;-82
2023/10/27 11:24:57;;;;;;;7.82;3.72;;;;;;;;;;6067417;23;20037;-81
2023/10/27 11:27:56;;;;;;;9.90;3.67;;;;;;;;;;6066481;23;20014;-84
2023/10/27 11:38:48;;;;;;;9.25;3.88;;;;;;;;;;6150651;23;20021;-83
2023/10/27 11:42:53;;;;;;;11.68;3.63;;;;;;;;;;6131555;23;20017;-82
2023/10/27 11:45:29;;;;;;;7.30;3.30;;;;;;;;;;6196002;23;20017;-83
2023/10/27 11:48:41;;;;;;;;;;;;;;;;;;6179490;23;20048;-85
2023/10/27 11:51:24;;;;;;;10.98;3.45;;;;;;;;;;6096306;23;20367;-84
2023/10/27 11:53:55;;;;;;;10.20;3.70;;;;;;;;;;6095988;23;20014;-83
2023/10/27 11:56:25;;;;;;;8.82;3.75;;;;;;;;;;6096560;23;20020;-81
2023/10/27 12:01:51;;;;;;;6.80;3.42;;;;;;;;;;6095239;23;20015;-81
2023/10/27 12:04:22;;;;;;;12.48;4.03;;;;;;;;;;6105388;23;20058;-80
2023/10/27 12:06:53;;;;;;;9.02;3.53;;;;;;;;;;6084586;23;20017;-79
2023/10/27 12:09:24;;;;;;;7.05;3.03;;;;;;;;;;6158707;23;20013;-80
2023/10/27 12:11:54;;;;;;;7.30;3.42;;;;;;;;;;6129755;23;20125;-81
2023/10/27 12:14:24;;;;;;;7.25;3.22;;;;;;;;;;6154032;23;20424;-80
2023/10/27 12:16:54;;;;;;;6.50;2.80;;;;;;;;;;6153802;23;20021;-78
2023/10/27 12:19:24;;;;;;;8.85;3.00;;;;;;;;;;6158795;23;20021;-79
2023/10/27 12:22:19;;;;;;;7.18;3.25;;;;;;;;;;6165872;23;20021;-79
2023/10/27 12:24:53;;;;;;;9.02;4.15;;;;;;;;;;6141408;23;20020;-79
2023/10/27 12:27:25;;;;;;;8.38;3.58;;;;;;;;;;6192550;23;20049;-80
2023/10/27 12:30:10;;;;;;;7.85;4.22;;;;;;;;;;6283993;22;20036;-80
2023/10/27 12:32:40;;;;;;;8.60;3.35;;;;;;;;;;6283599;22;20057;-80
2023/10/27 12:35:11;;;;;;;8.93;3.42;;;;;;;;;;6221394;23;20016;-82
2023/10/27 12:37:44;;;;;;;5.90;3.05;;;;;;;;;;6248038;23;20016;-81
2023/10/27 12:40:15;;;;;;;6.53;2.88;;;;;;;;;;6257720;23;20004;-84
2023/10/27 12:42:45;;;;;;;8.32;3.80;;;;;;;;;;6247092;23;20020;-82
2023/10/27 12:45:16;;;;;;;6.68;3.33;;;;;;;;;;6244984;23;20023;-84
2023/10/27 12:47:49;;;;;;;6.63;3.22;;;;;;;;;;6192622;23;20012;-84
2023/10/27 12:50:19;;;;;;;7.97;3.40;;;;;;;;;;6217647;23;20017;-85
2023/10/27 12:52:48;;;;;;;6.53;2.85;;;;;;;;;;6245387;23;20449;-85
2023/10/27 12:55:18;;;;;;;6.78;2.80;;;;;;;;;;6218396;23;20544;-85
2023/10/27 12:57:49;;;;;;;6.75;2.72;;;;;;;;;;6218982;23;20339;-86
2023/10/27 13:00:43;;;;;;;6.07;2.38;;;;;;;;;;6219264;23;20458;-83
2023/10/27 13:04:16;;;;;;;4.88;2.47;;;;;;;;;;6230699;23;20016;-81
2023/10/27 13:06:46;;;;;;;7.85;2.60;;;;;;;;;;6246146;23;20015;-86
2023/10/27 13:09:16;;;;;;;5.38;2.10;;;;;;;;;;6247523;23;20012;-80
2023/10/27 13:11:47;;;;;;;6.15;3.00;;;;;;;;;;6244514;23;20008;-80
2023/10/27 13:14:42;;;;;;;7.72;2.53;;;;;;;;;;6227979;23;20035;-80
2023/10/27 13:25:18;;;;;;;8.85;2.55;;;;;;;;;;6230692;23;20016;-80
2023/10/27 13:27:49;;;;;;;11.85;6.78;;;;;;;;;;6217321;23;20455;-82
2023/10/27 13:30:22;;;;;;;6.72;3.40;;;;;;;;;;6228203;23;20443;-81
2023/10/27 13:32:57;;;;;;;6.00;3.20;;;;;;;;;;6217414;23;20019;-84
2023/10/27 13:39:35;;;;;;;8.85;5.32;;;;;;;;;;6252855;23;20024;-84
2023/10/27 13:46:37;;;;;;;7.25;3.20;;;;;;;;;;6146685;23;20020;-80
2023/10/27 13:53:41;;;;;;;12.13;4.20;;;;;;;;;;6233432;23;20016;-83
2023/10/27 14:00:18;;;;;;;8.68;3.53;;;;;;;;;;6128577;23;20090;-80
2023/10/27 14:02:49;;;;;;;9.05;3.08;;;;;;;;;;6138017;23;20057;-80
2023/10/27 14:05:20;;;;;;;8.57;3.83;;;;;;;;;;6149010;23;20021;-83
2023/10/27 14:07:52;;;;;;;4.90;2.60;;;;;;;;;;6158298;23;20020;-83
2023/10/27 14:10:26;;;;;;;6.85;2.60;;;;;;;;;;6156533;23;20480;-83
2023/10/27 14:17:51;;;;;;;6.28;2.92;;;;;;;;;;6163721;23;20476;-80
2023/10/27 14:20:22;;;;;;;7.70;2.47;;;;;;;;;;6152330;23;20014;-82
2023/10/27 14:22:52;;;;;;;5.60;3.28;;;;;;;;;;6153755;23;20021;-84
2023/10/27 14:25:26;;;;;;;5.75;2.80;;;;;;;;;;6164173;23;20020;-82
2023/10/27 14:27:59;;;;;;;6.75;2.40;;;;;;;;;;6154344;23;20021;-81
2023/10/27 14:30:29;;;;;;;9.85;2.38;;;;;;;;;;6154329;23;20014;-82
2023/10/27 14:32:59;;;;;;;5.72;2.53;;;;;;;;;;6159798;23;20146;-82
2023/10/27 14:35:33;;;;;;;4.63;2.08;;;;;;;;;;6219575;23;20013;-81
2023/10/27 14:38:03;;;;;;;5.95;2.70;;;;;;;;;;6223484;23;20399;-82
2023/10/27 14:40:34;;;;;;;4.43;2.20;;;;;;;;;;6186371;23;20013;-81
2023/10/27 14:43:18;;;;;;;5.00;2.20;;;;;;;;;;6208878;23;20020;-83
2023/10/27 14:49:21;;;;;;;7.47;3.13;;;;;;;;;;6246150;23;20055;-83
2023/10/27 14:51:51;;;;;;;5.47;2.40;;;;;;;;;;6218465;23;20443;-83
2023/10/27 15:02:53;;;;;;;8.10;2.55;;;;;;;;;;6224872;23;20431;-85
2023/10/27 15:05:24;;;;;;;5.57;2.50;;;;;;;;;;6218479;23;20008;-79
2023/10/27 15:07:54;;;;;;;7.70;2.47;;;;;;;;;;6218819;23;20016;-81
2023/10/27 15:10:24;;;;;;;6.85;3.00;;;;;;;;;;6245377;23;20012;-79
2023/10/27 15:12:55;;;;;;;5.45;2.47;;;;;;;;;;6255038;23;20016;-80
2023/10/27 15:15:25;;;;;;;8.32;3.03;;;;;;;;;;6245065;23;20442;-80
2023/10/27 15:17:54;;;;;;;5.80;2.83;;;;;;;;;;6217602;23;20016;-81
2023/10/27 15:20:25;;;;;;;5.43;2.60;;;;;;;;;;6193799;23;20043;-80
2023/10/27 15:22:55;;;;;;;7.68;3.00;;;;;;;;;;6217204;23;20023;-80
2023/10/27 15:25:25;;;;;;;7.03;2.72;;;;;;;;;;6244954;23;20103;-80
2023/10/27 15:27:55;;;;;;;6.35;3.00;;;;;;;;;;6245396;23;20012;-80
2023/10/27 15:30:25;;;;;;;6.43;2.65;;;;;;;;;;6244973;23;20431;-80
2023/10/27 15:32:55;;;;;;;5.53;2.65;;;;;;;;;;6245922;23;20309;-78
2023/10/27 15:35:25;;;;;;;8.90;2.97;;;;;;;;;;6218305;23;20016;-78
2023/10/27 15:37:56;;;;;;;6.10;2.92;;;;;;;;;;6245298;23;20438;-78
2023/10/27 15:40:26;;;;;;;7.18;3.53;;;;;;;;;;6245150;23;20015;-78
2023/10/27 15:42:58;;;;;;;9.52;3.28;;;;;;;;;;6245959;23;20011;-78
2023/10/27 15:45:29;;;;;;;7.70;3.38;;;;;;;;;;6256346;23;20415;-79
2023/10/27 15:47:59;;;;;;;9.00;3.72;;;;;;;;;;6246472;23;20016;-78
2023/10/27 15:50:29;;;;;;;6.40;3.35;;;;;;;;;;6246877;23;20012;-78
2023/10/27 15:52:59;;;;;;;7.28;3.40;;;;;;;;;;6246374;23;20004;-79
2023/10/27 15:55:30;;;;;;;6.47;3.60;;;;;;;;;;6218205;23;20291;-79
2023/10/27 15:58:03;;;;;;;8.45;3.60;;;;;;;;;;6256603;23;20439;-78
2023/10/27 16:00:33;;;;;;;;;;;;;;;;;;6257494;23;20334;-79
2023/10/27 16:03:03;;;;;;;8.20;3.17;;;;;;;;;;6247182;23;19911;-79
2023/10/27 16:05:36;;;;;;;5.70;2.83;;;;;;;;;;6246417;23;20004;-77
2023/10/27 16:08:07;;;;;;;7.70;3.05;;;;;;;;;;6244347;23;20462;-78
2023/10/27 16:10:38;;;;;;;6.45;2.90;;;;;;;;;;6255430;23;20434;-79
2023/10/27 16:13:08;;;;;;;8.50;3.20;;;;;;;;;;6245453;23;20012;-78
2023/10/27 16:15:38;;;;;;;6.13;2.97;;;;;;;;;;6245327;23;20411;-78
2023/10/27 16:18:09;;;;;;;5.20;2.45;;;;;;;;;;6245891;23;20016;-79
2023/10/27 16:20:40;;;;;;;6.03;2.45;;;;;;;;;;6217802;23;20009;-78
2023/10/27 16:23:12;;;;;;;6.20;2.55;;;;;;;;;;6255458;23;20012;-79
2023/10/27 16:25:42;;;;;;;;;;;;;;;;;;6255352;23;20019;-79
2023/10/27 16:28:12;;;;;;;4.70;2.00;;;;;;;;;;6245498;23;20246;-79
2023/10/27 16:30:43;;;;;;;4.68;2.33;;;;;;;;;;6245111;23;20008;-77
2023/10/27 16:33:14;;;;;;;5.07;2.50;;;;;;;;;;6255396;23;20309;-78
2023/10/27 16:35:44;;;;;;;4.97;2.50;;;;;;;;;;6245463;23;20008;-78
2023/10/27 16:38:14;;;;;;;6.30;2.40;;;;;;;;;;6245183;23;20016;-78
2023/10/27 16:40:45;;;;;;;4.90;2.25;;;;;;;;;;6245845;23;20004;-78
2023/10/27 16:43:16;;;;;;;6.20;2.95;;;;;;;;;;6249465;23;20011;-78
2023/10/27 16:45:47;;;;;;;5.50;2.50;;;;;;;;;;6245418;23;20008;-78
2023/10/27 16:48:17;;;;;;;5.63;2.88;;;;;;;;;;6217213;23;20034;-78
2023/10/27 16:50:47;;;;;;;5.43;2.65;;;;;;;;;;6244734;23;20016;-78
2023/10/27 16:53:18;;;;;;;5.15;2.53;;;;;;;;;;6244528;23;20022;-78
2023/10/27 16:55:52;;;;;;;5.50;2.63;;;;;;;;;;6245403;23;20011;-78
2023/10/27 16:58:22;;;;;;;5.57;2.88;;;;;;;;;;6255124;23;20419;-78
2023/10/27 17:01:01;;;;;;;5.30;2.58;;;;;;;;;;6217307;23;20023;-78
2023/10/27 17:03:35;;;;;;;8.30;2.90;;;;;;;;;;6255626;23;20027;-78
2023/10/27 17:06:06;;;;;;;6.35;3.15;;;;;;;;;;6229434;23;20008;-78
2023/10/27 17:08:37;;;;;;;7.00;3.03;;;;;;;;;;6229181;23;20015;-78
2023/10/27 17:11:08;;;;;;;7.05;3.22;;;;;;;;;;6254852;23;20011;-77
2023/10/27 17:13:40;;;;;;;5.80;2.80;;;;;;;;;;6228565;23;20018;-78
2023/10/27 17:16:11;;;;;;;6.38;3.08;;;;;;;;;;6244505;23;20020;-78
2023/10/27 17:18:42;;;;;;;8.55;3.00;;;;;;;;;;6255407;23;20012;-79
2023/10/27 17:21:20;;;;;;;5.32;2.65;;;;;;;;;;6255808;23;20005;-78
2023/10/27 17:23:56;;;;;;;5.38;2.75;;;;;;;;;;6255501;23;20004;-79
2023/10/27 17:26:26;;;;;;;5.95;2.95;;;;;;;;;;6254468;23;20051;-78
2023/10/27 17:28:57;;;;;;;6.55;3.00;;;;;;;;;;6244845;23;20019;-78
2023/10/27 17:31:27;;;;;;;5.05;2.20;;;;;;;;;;6244199;23;20015;-78
2023/10/27 17:33:58;;;;;;;5.00;2.70;;;;;;;;;;6244581;23;20020;-78
2023/10/27 17:36:29;;;;;;;5.35;2.45;;;;;;;;;;6245073;23;20016;-78
2023/10/27 17:38:59;;;;;;;6.13;3.03;;;;;;;;;;6254131;23;20015;-78
2023/10/27 17:41:30;;;;;;;5.43;2.40;;;;;;;;;;6245314;23;20046;-79
2023/10/27 17:44:00;;;;;;;8.40;2.50;;;;;;;;;;6243564;23;20031;-78
2023/10/27 17:46:30;;;;;;;5.53;2.50;;;;;;;;;;6244379;23;20012;-78
2023/10/27 17:49:00;;;;;;;6.10;2.60;;;;;;;;;;6243844;23;20013;-78
2023/10/27 17:51:30;;;;;;;5.25;2.42;;;;;;;;;;6244974;23;20016;-78
2023/10/27 17:54:00;;;;;;;4.55;2.10;;;;;;;;;;6244721;23;20431;-78
2023/10/27 17:56:32;;;;;;;5.53;2.25;;;;;;;;;;6255483;23;20008;-78
2023/10/27 17:59:03;;;;;;;5.30;2.05;;;;;;;;;;6246622;23;20034;-78
2023/10/27 18:01:34;;;;;;;5.05;2.38;;;;;;;;;;6246612;23;20023;-78
2023/10/27 18:04:05;;;;;;;5.35;1.75;;;;;;;;;;6246704;23;20404;-78
2023/10/27 18:06:36;;;;;;;4.50;2.13;;;;;;;;;;6246794;23;20016;-78
2023/10/27 18:09:07;;;;;;;6.13;2.30;;;;;;;;;;6257331;23;20806;-77
2023/10/27 18:11:38;;;;;;;6.22;2.13;;;;;;;;;;6255629;23;20012;-77
2023/10/27 18:14:09;;;;;;;6.45;2.10;;;;;;;;;;6246345;23;20020;-78
2023/10/27 18:16:40;;;;;;;4.18;1.88;;;;;;;;;;6256737;23;20008;-78
2023/10/27 18:19:10;;;;;;;3.58;1.73;;;;;;;;;;6246147;23;20012;-77
2023/10/27 18:21:41;;;;;;;3.88;2.00;;;;;;;;;;6194298;23;20040;-78
2023/10/27 18:24:12;;;;;;;3.60;1.60;;;;;;;;;;6256591;23;20027;-77
2023/10/27 18:26:43;;;;;;;4.40;1.73;;;;;;;;;;6256724;23;20011;-77
2023/10/27 18:29:13;;;;;;;4.72;1.80;;;;;;;;;;6247112;23;20032;-78
2023/10/27 18:31:43;;;;;;;6.00;1.67;;;;;;;;;;6246736;23;20026;-78
2023/10/27 18:34:13;;;;;;;3.83;1.60;;;;;;;;;;6246800;23;20008;-77
2023/10/27 18:36:44;;;;;;;5.47;1.80;;;;;;;;;;6246617;23;20015;-77
2023/10/27 18:39:14;;;;;;;3.90;1.60;;;;;;;;;;6256440;23;20331;-78
2023/10/27 18:41:44;;;;;;;4.13;1.65;;;;;;;;;;6223887;23;20019;-78
2023/10/27 18:44:14;;;;;;;3.50;1.77;;;;;;;;;;6269414;23;20016;-76
2023/10/27 18:46:46;;;;;;;4.90;1.55;;;;;;;;;;6259544;23;20008;-77
2023/10/27 18:49:17;;;;;;;3.53;1.70;;;;;;;;;;6268381;23;20008;-77
2023/10/27 18:51:48;;;;;;;5.10;1.42;;;;;;;;;;6248895;23;20004;-77
2023/10/27 18:54:19;;;;;;;4.07;2.00;;;;;;;;;;6247999;23;20019;-78
2023/10/27 18:56:53;;;;;;;3.97;1.70;;;;;;;;;;6257944;23;20015;-77
2023/10/27 18:59:26;;;;;;;4.13;1.75;;;;;;;;;;6257575;23;20015;-78
2023/10/27 19:01:58;;;;;;;3.42;1.73;;;;;;;;;;6256724;23;20012;-78
2023/10/27 19:04:32;;;;;;;3.53;1.52;;;;;;;;;;6257205;23;20030;-79
2023/10/27 19:07:18;;;;;;;4.32;1.75;;;;;;;;;;6257008;23;20012;-78
2023/10/27 19:09:56;;;;;;;5.05;1.70;;;;;;;;;;6246699;23;20022;-78
2023/10/27 19:12:26;;;;;;;4.60;1.58;;;;;;;;;;6256401;23;20004;-78
2023/10/27 19:14:58;;;;;;;3.70;1.67;;;;;;;;;;6220071;23;20017;-78
2023/10/27 19:17:29;;;;;;;3.70;1.70;;;;;;;;;;6256498;23;20008;-78
2023/10/27 19:19:59;;;;;;;7.32;1.75;;;;;;;;;;6256843;23;20016;-78
2023/10/27 19:22:30;;;;;;;3.80;1.52;;;;;;;;;;6245942;23;20403;-77
2023/10/27 19:25:00;;;;;;;4.15;1.90;;;;;;;;;;6245872;23;20023;-78
2023/10/27 19:27:30;;;;;;;3.47;1.85;;;;;;;;;;6245908;23;20012;-78
2023/10/27 19:30:01;;;;;;;2.90;1.35;;;;;;;;;;6217763;23;20019;-77
2023/10/27 19:32:33;;;;;;;5.40;1.60;;;;;;;;;;6256144;23;20008;-77
2023/10/27 19:35:06;;;;;;;3.50;1.50;;;;;;;;;;6256158;23;20031;-77
2023/10/27 19:37:37;;;;;;;2.78;1.38;;;;;;;;;;6255722;23;20438;-77
2023/10/27 19:40:08;;;;;;;3.13;1.40;;;;;;;;;;6245879;23;20016;-77
2023/10/27 19:42:40;;;;;;;3.00;1.42;;;;;;;;;;6245940;23;20012;-78
2023/10/27 19:45:12;;;;;;;3.50;1.40;;;;;;;;;;6255778;23;20011;-77
2023/10/27 19:47:43;;;;;;;2.92;1.00;;;;;;;;;;6256001;23;20015;-77
2023/10/27 19:50:13;;;;;;;3.00;1.17;;;;;;;;;;6254927;23;20004;-77
2023/10/27 19:52:43;;;;;;;2.90;1.33;;;;;;;;;;6245077;23;20012;-77
2023/10/27 19:55:16;;;;;;;3.22;1.42;;;;;;;;;;6245281;23;20027;-77
2023/10/27 19:57:47;;;;;;;3.38;1.50;;;;;;;;;;6255580;23;20005;-77
2023/10/27 20:00:22;;;;;;;4.10;1.52;;;;;;;;;;6255089;23;20027;-78
2023/10/27 20:02:53;;;;;;;3.53;1.45;;;;;;;;;;6254329;23;20327;-78
2023/10/27 20:05:23;;;;;;;4.25;1.58;;;;;;;;;;6255707;23;20012;-78
2023/10/27 20:07:56;;;;;;;2.33;1.25;;;;;;;;;;6245510;23;20012;-77
2023/10/27 20:10:26;;;;;;;3.05;1.45;;;;;;;;;;6255721;23;20012;-77
2023/10/27 20:12:56;;;;;;;2.95;1.38;;;;;;;;;;6244950;23;20028;-78
2023/10/27 20:15:27;;;;;;;3.25;1.52;;;;;;;;;;6245408;23;20016;-78
2023/10/27 20:17:58;;;;;;;2.83;1.42;;;;;;;;;;6245303;23;20288;-79
2023/10/27 20:20:29;;;;;;;4.22;1.73;;;;;;;;;;6255587;23;20011;-78
2023/10/27 20:23:01;;;;;;;4.25;1.50;;;;;;;;;;6244993;23;20027;-78
2023/10/27 20:25:33;;;;;;;3.90;1.90;;;;;;;;;;6255486;23;20008;-78
2023/10/27 20:28:07;;;;;;;4.05;1.55;;;;;;;;;;6255547;23;20004;-77
2023/10/27 20:30:38;;;;;;;4.80;1.88;;;;;;;;;;6255565;23;20004;-77
2023/10/27 20:33:08;;;;;;;4.22;1.70;;;;;;;;;;6245551;23;20012;-77
2023/10/27 20:35:38;;;;;;;3.92;1.95;;;;;;;;;;6245354;23;20331;-77
2023/10/27 20:38:09;;;;;;;4.03;1.85;;;;;;;;;;6244953;23;20485;-78
2023/10/27 20:40:40;;;;;;;3.63;1.55;;;;;;;;;;6248307;23;20008;-78
2023/10/27 20:43:12;;;;;;;5.05;2.03;;;;;;;;;;6248819;23;20428;-78
2023/10/27 20:45:42;;;;;;;3.85;1.75;;;;;;;;;;6245374;23;20012;-78
2023/10/27 20:48:16;;;;;;;3.88;1.90;;;;;;;;;;6245501;23;20016;-78
2023/10/27 20:50:48;;;;;;;4.85;2.00;;;;;;;;;;6254206;23;20272;-78
2023/10/27 20:53:20;;;;;;;3.78;1.67;;;;;;;;;;6253559;23;20005;-78
2023/10/27 20:55:51;;;;;;;4.85;2.15;;;;;;;;;;6253830;23;20451;-78
2023/10/27 20:58:25;;;;;;;4.30;2.03;;;;;;;;;;6244525;23;20008;-78
2023/10/27 21:00:57;;;;;;;5.90;1.90;;;;;;;;;;6228720;23;20008;-78
2023/10/27 21:03:28;;;;;;;5.00;1.95;;;;;;;;;;6255321;23;20011;-78
2023/10/27 21:06:01;;;;;;;3.97;2.05;;;;;;;;;;6255623;23;20008;-76
2023/10/27 21:08:36;;;;;;;4.13;1.85;;;;;;;;;;6254939;23;20085;-78
2023/10/27 21:11:07;;;;;;;4.35;1.90;;;;;;;;;;6228476;23;20308;-78
2023/10/27 21:13:37;;;;;;;4.13;1.85;;;;;;;;;;6244890;23;20431;-78
2023/10/27 21:16:08;;;;;;;5.28;1.65;;;;;;;;;;6255163;23;20423;-78
2023/10/27 21:18:38;;;;;;;4.32;1.58;;;;;;;;;;6244817;23;20012;-78
2023/10/27 21:21:09;;;;;;;9.45;2.30;;;;;;;;;;6245440;23;20016;-78
2023/10/27 21:23:40;;;;;;;6.70;2.13;;;;;;;;;;6252228;23;20327;-78
2023/10/27 21:26:10;;;;;;;4.57;2.10;;;;;;;;;;6228439;23;20012;-78
2023/10/27 21:28:40;;;;;;;4.32;1.80;;;;;;;;;;6244149;23;20327;-78
2023/10/27 21:31:10;;;;;;;4.53;1.90;;;;;;;;;;6244237;23;20023;-78
2023/10/27 21:33:41;;;;;;;5.70;2.20;;;;;;;;;;6244357;23;20016;-78
2023/10/27 21:36:11;;;;;;;6.32;2.40;;;;;;;;;;6243934;23;20012;-77
2023/10/27 21:38:41;;;;;;;6.05;2.00;;;;;;;;;;6244426;23;20059;-77
2023/10/27 21:41:11;;;;;;;7.18;2.50;;;;;;;;;;6242897;23;20039;-77
2023/10/27 21:43:42;;;;;;;5.00;2.30;;;;;;;;;;6244211;23;20012;-77
2023/10/27 21:46:12;;;;;;;5.93;2.10;;;;;;;;;;6244798;23;20588;-78
2023/10/27 21:48:44;;;;;;;6.03;2.10;;;;;;;;;;6254382;23;20008;-77
2023/10/27 21:51:14;;;;;;;4.30;2.00;;;;;;;;;;6245871;23;20016;-78
2023/10/27 21:53:46;;;;;;;6.68;2.20;;;;;;;;;;6244646;23;20339;-77
2023/10/27 21:56:16;;;;;;;6.10;2.58;;;;;;;;;;6255697;23;20015;-77
2023/10/27 21:58:47;;;;;;;4.88;2.35;;;;;;;;;;6243927;23;20013;-77
2023/10/27 22:01:17;;;;;;;5.28;2.30;;;;;;;;;;6254735;23;20012;-77
2023/10/27 22:03:48;;;;;;;6.70;2.53;;;;;;;;;;6244590;23;20008;-78
2023/10/27 22:06:29;;;;;;;6.30;2.90;;;;;;;;;;6254823;23;20011;-77
2023/10/27 22:08:59;;;;;;;5.65;2.38;;;;;;;;;;6254799;23;20469;-77
2023/10/27 22:11:29;;;;;;;5.55;2.40;;;;;;;;;;6243980;23;20016;-77
2023/10/27 22:13:59;;;;;;;5.50;2.30;;;;;;;;;;6244616;23;20043;-77
2023/10/27 22:16:30;;;;;;;4.80;2.08;;;;;;;;;;6244555;23;20016;-77
2023/10/27 22:19:02;;;;;;;5.88;2.00;;;;;;;;;;6243943;23;20447;-76
2023/10/27 22:21:32;;;;;;;5.65;2.42;;;;;;;;;;6217490;23;20110;-76
2023/10/27 22:24:03;;;;;;;4.55;2.20;;;;;;;;;;6244976;23;20016;-77
2023/10/27 22:26:35;;;;;;;6.07;2.20;;;;;;;;;;6244739;23;20042;-77
2023/10/27 22:29:09;;;;;;;6.85;2.30;;;;;;;;;;6243353;23;20019;-77
2023/10/27 22:31:42;;;;;;;6.70;2.40;;;;;;;;;;6241976;23;20020;-77
2023/10/27 22:34:13;;;;;;;6.00;2.20;;;;;;;;;;6254608;23;20011;-77
2023/10/27 22:36:45;;;;;;;5.15;2.45;;;;;;;;;;6243951;23;20428;-77
2023/10/27 22:39:15;;;;;;;5.53;2.35;;;;;;;;;;6254690;23;20319;-77
2023/10/27 22:41:46;;;;;;;6.13;2.28;;;;;;;;;;6243815;23;20011;-77
2023/10/27 22:44:16;;;;;;;6.25;2.13;;;;;;;;;;6256565;23;20335;-78
2023/10/27 22:46:46;;;;;;;6.47;2.28;;;;;;;;;;6246575;23;20020;-77
2023/10/27 22:49:16;;;;;;;7.35;2.50;;;;;;;;;;6247215;23;20316;-77
2023/10/27 22:51:47;;;;;;;7.63;2.40;;;;;;;;;;6256602;23;20319;-77
2023/10/27 22:54:19;;;;;;;6.18;2.30;;;;;;;;;;6257511;23;20403;-77
2023/10/27 22:56:50;;;;;;;4.82;2.35;;;;;;;;;;6256784;23;20011;-77
2023/10/27 22:59:21;;;;;;;5.53;1.85;;;;;;;;;;6256684;23;20008;-77
2023/10/27 23:01:53;;;;;;;5.38;2.60;;;;;;;;;;6256689;23;20019;-78
2023/10/27 23:04:23;;;;;;;5.88;2.45;;;;;;;;;;6246645;23;20327;-77
2023/10/27 23:06:53;;;;;;;5.05;2.25;;;;;;;;;;6247284;23;20008;-78
2023/10/27 23:09:25;;;;;;;8.57;2.90;;;;;;;;;;6246914;23;20334;-78
2023/10/27 23:11:55;;;;;;;7.05;2.80;;;;;;;;;;6256391;23;20008;-78
2023/10/27 23:14:25;;;;;;;5.82;2.50;;;;;;;;;;6220393;23;20016;-78
2023/10/27 23:16:55;;;;;;;5.60;2.65;;;;;;;;;;6248151;23;20008;-79
2023/10/27 23:19:26;;;;;;;9.38;2.50;;;;;;;;;;6221172;23;20015;-77
2023/10/27 23:21:56;;;;;;;5.50;2.53;;;;;;;;;;6246428;23;20438;-78
2023/10/27 23:24:26;;;;;;;6.22;2.53;;;;;;;;;;6246847;23;20008;-77
2023/10/27 23:26:57;;;;;;;10.15;2.55;;;;;;;;;;6257625;23;20008;-78
2023/10/27 23:29:28;;;;;;;11.00;2.75;;;;;;;;;;6246829;23;20016;-77
2023/10/27 23:31:59;;;;;;;11.30;3.30;;;;;;;;;;6257486;23;20004;-77